sensor_id;sensor_type;location;lat;lon;timestamp;P1;durP1;ratioP1;P2;durP2;ratioP2
47113;SDS011;32867;51.556;6.832;2024-03-22T00:00:29;31.63;;;18.88;;
47113;SDS011;32867;51.556;6.832;2024-03-22T00:05:29;31.13;;;18.92;;
47113;SDS011;32867;51.556;6.832;2024-03-22T00:10:30;29.80;;;18.70;;
47113;SDS011;32867;51.556;6.832;2024-03-22T00:15:31;31.15;;;19.13;;
47113;SDS011;32867;51.556;6.832;2024-03-22T00:20:31;32.78;;;19.83;;
47113;SDS011;32867;51.556;6.832;2024-03-22T00:25:32;36.30;;;20.42;;
47113;SDS011;32867;51.556;6.832;2024-03-22T00:30:32;32.50;;;19.75;;
47113;SDS011;32867;51.556;6.832;2024-03-22T00:35:34;35.72;;;20.52;;
47113;SDS011;32867;51.556;6.832;2024-03-22T00:40:35;35.20;;;20.73;;
47113;SDS011;32867;51.556;6.832;2024-03-22T00:45:36;36.00;;;20.63;;
47113;SDS011;32867;51.556;6.832;2024-03-22T00:50:36;37.20;;;21.88;;
47113;SDS011;32867;51.556;6.832;2024-03-22T00:55:37;33.88;;;19.60;;
47113;SDS011;32867;51.556;6.832;2024-03-22T01:00:38;33.38;;;19.23;;
47113;SDS011;32867;51.556;6.832;2024-03-22T01:05:40;35.00;;;20.40;;
47113;SDS011;32867;51.556;6.832;2024-03-22T01:10:42;33.65;;;20.20;;
47113;SDS011;32867;51.556;6.832;2024-03-22T01:15:42;36.88;;;22.13;;
47113;SDS011;32867;51.556;6.832;2024-03-22T01:20:44;34.45;;;20.23;;
47113;SDS011;32867;51.556;6.832;2024-03-22T01:25:44;35.90;;;20.27;;
47113;SDS011;32867;51.556;6.832;2024-03-22T01:30:45;39.30;;;21.08;;
47113;SDS011;32867;51.556;6.832;2024-03-22T01:35:46;37.45;;;21.60;;
47113;SDS011;32867;51.556;6.832;2024-03-22T01:40:46;37.67;;;21.85;;
47113;SDS011;32867;51.556;6.832;2024-03-22T01:45:47;34.35;;;20.90;;
47113;SDS011;32867;51.556;6.832;2024-03-22T01:50:48;40.38;;;21.60;;
47113;SDS011;32867;51.556;6.832;2024-03-22T01:55:48;40.28;;;22.33;;
47113;SDS011;32867;51.556;6.832;2024-03-22T02:00:49;34.55;;;20.23;;
47113;SDS011;32867;51.556;6.832;2024-03-22T02:05:50;37.00;;;22.05;;
47113;SDS011;32867;51.556;6.832;2024-03-22T02:10:50;31.92;;;19.38;;
47113;SDS011;32867;51.556;6.832;2024-03-22T02:15:53;36.08;;;21.02;;
47113;SDS011;32867;51.556;6.832;2024-03-22T02:20:53;36.03;;;20.95;;
47113;SDS011;32867;51.556;6.832;2024-03-22T02:25:54;39.65;;;21.63;;
47113;SDS011;32867;51.556;6.832;2024-03-22T02:30:54;36.45;;;21.88;;
47113;SDS011;32867;51.556;6.832;2024-03-22T02:35:55;40.03;;;22.73;;
47113;SDS011;32867;51.556;6.832;2024-03-22T02:40:57;44.67;;;24.30;;
47113;SDS011;32867;51.556;6.832;2024-03-22T02:45:58;39.28;;;22.52;;
47113;SDS011;32867;51.556;6.832;2024-03-22T02:50:59;39.70;;;21.80;;
47113;SDS011;32867;51.556;6.832;2024-03-22T02:56:00;42.05;;;22.42;;
47113;SDS011;32867;51.556;6.832;2024-03-22T03:01:01;33.53;;;19.63;;
47113;SDS011;32867;51.556;6.832;2024-03-22T03:06:02;37.17;;;20.58;;
47113;SDS011;32867;51.556;6.832;2024-03-22T03:11:03;37.92;;;21.45;;
47113;SDS011;32867;51.556;6.832;2024-03-22T03:16:04;34.40;;;20.48;;
47113;SDS011;32867;51.556;6.832;2024-03-22T03:21:04;38.83;;;22.40;;
47113;SDS011;32867;51.556;6.832;2024-03-22T03:26:05;38.45;;;20.45;;
47113;SDS011;32867;51.556;6.832;2024-03-22T03:31:06;36.15;;;21.05;;
47113;SDS011;32867;51.556;6.832;2024-03-22T03:36:06;39.80;;;23.15;;
47113;SDS011;32867;51.556;6.832;2024-03-22T03:41:07;40.53;;;24.20;;
47113;SDS011;32867;51.556;6.832;2024-03-22T03:46:08;39.17;;;23.50;;
47113;SDS011;32867;51.556;6.832;2024-03-22T03:51:08;39.95;;;24.17;;
47113;SDS011;32867;51.556;6.832;2024-03-22T03:56:09;38.00;;;22.20;;
47113;SDS011;32867;51.556;6.832;2024-03-22T04:01:10;38.60;;;22.75;;
47113;SDS011;32867;51.556;6.832;2024-03-22T04:06:10;42.78;;;24.05;;
47113;SDS011;32867;51.556;6.832;2024-03-22T04:11:11;39.50;;;21.67;;
47113;SDS011;32867;51.556;6.832;2024-03-22T04:16:12;37.90;;;21.50;;
47113;SDS011;32867;51.556;6.832;2024-03-22T04:21:12;43.95;;;23.65;;
47113;SDS011;32867;51.556;6.832;2024-03-22T04:26:13;42.08;;;23.27;;
47113;SDS011;32867;51.556;6.832;2024-03-22T04:31:14;36.38;;;21.27;;
47113;SDS011;32867;51.556;6.832;2024-03-22T04:36:15;33.97;;;20.25;;
47113;SDS011;32867;51.556;6.832;2024-03-22T04:41:16;38.67;;;20.85;;
47113;SDS011;32867;51.556;6.832;2024-03-22T04:46:17;38.00;;;23.05;;
47113;SDS011;32867;51.556;6.832;2024-03-22T04:51:17;30.63;;;19.20;;
47113;SDS011;32867;51.556;6.832;2024-03-22T04:56:18;37.00;;;20.02;;
47113;SDS011;32867;51.556;6.832;2024-03-22T05:01:19;36.47;;;20.70;;
47113;SDS011;32867;51.556;6.832;2024-03-22T05:06:19;35.42;;;19.67;;
47113;SDS011;32867;51.556;6.832;2024-03-22T05:11:20;33.97;;;20.08;;
47113;SDS011;32867;51.556;6.832;2024-03-22T05:16:21;36.42;;;20.70;;
47113;SDS011;32867;51.556;6.832;2024-03-22T05:21:23;33.10;;;20.42;;
47113;SDS011;32867;51.556;6.832;2024-03-22T05:26:24;31.23;;;19.20;;
47113;SDS011;32867;51.556;6.832;2024-03-22T05:31:25;31.33;;;19.73;;
47113;SDS011;32867;51.556;6.832;2024-03-22T05:36:25;32.42;;;19.58;;
47113;SDS011;32867;51.556;6.832;2024-03-22T05:41:26;35.45;;;19.90;;
47113;SDS011;32867;51.556;6.832;2024-03-22T05:46:26;33.63;;;20.92;;
47113;SDS011;32867;51.556;6.832;2024-03-22T05:51:27;30.77;;;19.00;;
47113;SDS011;32867;51.556;6.832;2024-03-22T05:56:28;28.45;;;18.30;;
47113;SDS011;32867;51.556;6.832;2024-03-22T06:01:28;30.58;;;18.67;;
47113;SDS011;32867;51.556;6.832;2024-03-22T06:06:29;31.85;;;19.35;;
47113;SDS011;32867;51.556;6.832;2024-03-22T06:11:30;30.05;;;18.55;;
47113;SDS011;32867;51.556;6.832;2024-03-22T06:16:30;34.17;;;20.05;;
47113;SDS011;32867;51.556;6.832;2024-03-22T06:21:31;30.90;;;18.52;;
47113;SDS011;32867;51.556;6.832;2024-03-22T06:26:31;28.20;;;17.52;;
47113;SDS011;32867;51.556;6.832;2024-03-22T06:31:32;29.02;;;18.48;;
47113;SDS011;32867;51.556;6.832;2024-03-22T06:36:33;27.10;;;17.45;;
47113;SDS011;32867;51.556;6.832;2024-03-22T06:41:34;28.17;;;17.70;;
47113;SDS011;32867;51.556;6.832;2024-03-22T06:46:35;27.60;;;17.55;;
47113;SDS011;32867;51.556;6.832;2024-03-22T06:51:35;34.17;;;18.80;;
47113;SDS011;32867;51.556;6.832;2024-03-22T06:56:36;28.20;;;18.35;;
47113;SDS011;32867;51.556;6.832;2024-03-22T07:01:37;29.45;;;17.30;;
47113;SDS011;32867;51.556;6.832;2024-03-22T07:06:37;24.92;;;16.63;;
47113;SDS011;32867;51.556;6.832;2024-03-22T07:11:38;26.15;;;16.08;;
47113;SDS011;32867;51.556;6.832;2024-03-22T07:16:39;25.95;;;17.30;;
47113;SDS011;32867;51.556;6.832;2024-03-22T07:21:39;28.20;;;17.73;;
47113;SDS011;32867;51.556;6.832;2024-03-22T07:26:40;26.25;;;16.58;;
47113;SDS011;32867;51.556;6.832;2024-03-22T07:31:40;24.95;;;16.35;;
47113;SDS011;32867;51.556;6.832;2024-03-22T07:36:41;22.38;;;16.70;;
47113;SDS011;32867;51.556;6.832;2024-03-22T07:41:42;27.73;;;16.05;;
47113;SDS011;32867;51.556;6.832;2024-03-22T07:46:43;24.65;;;15.82;;
47113;SDS011;32867;51.556;6.832;2024-03-22T07:51:45;25.63;;;15.45;;
47113;SDS011;32867;51.556;6.832;2024-03-22T07:56:45;24.08;;;14.85;;
47113;SDS011;32867;51.556;6.832;2024-03-22T08:01:46;21.92;;;13.15;;
47113;SDS011;32867;51.556;6.832;2024-03-22T08:06:47;20.75;;;13.90;;
47113;SDS011;32867;51.556;6.832;2024-03-22T08:11:47;21.38;;;13.95;;
47113;SDS011;32867;51.556;6.832;2024-03-22T08:16:48;21.40;;;13.82;;
47113;SDS011;32867;51.556;6.832;2024-03-22T08:21:49;21.10;;;13.05;;
47113;SDS011;32867;51.556;6.832;2024-03-22T08:26:49;21.10;;;12.70;;
47113;SDS011;32867;51.556;6.832;2024-03-22T08:31:50;19.95;;;13.00;;
47113;SDS011;32867;51.556;6.832;2024-03-22T08:36:50;20.25;;;12.55;;
47113;SDS011;32867;51.556;6.832;2024-03-22T08:41:51;19.27;;;13.07;;
47113;SDS011;32867;51.556;6.832;2024-03-22T08:46:52;20.33;;;12.25;;
47113;SDS011;32867;51.556;6.832;2024-03-22T08:51:52;18.50;;;12.32;;
47113;SDS011;32867;51.556;6.832;2024-03-22T08:56:53;20.33;;;12.40;;
47113;SDS011;32867;51.556;6.832;2024-03-22T09:01:54;19.38;;;11.77;;
47113;SDS011;32867;51.556;6.832;2024-03-22T09:06:54;20.17;;;11.90;;
47113;SDS011;32867;51.556;6.832;2024-03-22T09:11:55;18.85;;;11.48;;
47113;SDS011;32867;51.556;6.832;2024-03-22T09:16:55;19.20;;;11.10;;
47113;SDS011;32867;51.556;6.832;2024-03-22T09:21:56;18.27;;;11.52;;
47113;SDS011;32867;51.556;6.832;2024-03-22T09:26:57;15.25;;;10.88;;
47113;SDS011;32867;51.556;6.832;2024-03-22T09:31:58;16.42;;;10.45;;
47113;SDS011;32867;51.556;6.832;2024-03-22T09:36:59;17.60;;;11.40;;
47113;SDS011;32867;51.556;6.832;2024-03-22T09:42:01;17.67;;;10.65;;
47113;SDS011;32867;51.556;6.832;2024-03-22T09:47:06;16.15;;;10.45;;
47113;SDS011;32867;51.556;6.832;2024-03-22T09:52:08;18.10;;;11.13;;
47113;SDS011;32867;51.556;6.832;2024-03-22T09:57:13;18.25;;;11.18;;
47113;SDS011;32867;51.556;6.832;2024-03-22T10:02:17;13.87;;;10.20;;
47113;SDS011;32867;51.556;6.832;2024-03-22T10:07:19;15.35;;;10.65;;
47113;SDS011;32867;51.556;6.832;2024-03-22T10:12:20;13.68;;;9.25;;
47113;SDS011;32867;51.556;6.832;2024-03-22T10:17:21;13.40;;;9.68;;
47113;SDS011;32867;51.556;6.832;2024-03-22T10:22:22;16.65;;;10.35;;
47113;SDS011;32867;51.556;6.832;2024-03-22T10:27:24;16.05;;;11.00;;
47113;SDS011;32867;51.556;6.832;2024-03-22T10:32:27;13.57;;;9.00;;
47113;SDS011;32867;51.556;6.832;2024-03-22T10:37:28;16.23;;;10.82;;
47113;SDS011;32867;51.556;6.832;2024-03-22T10:42:31;15.48;;;9.98;;
47113;SDS011;32867;51.556;6.832;2024-03-22T10:47:33;15.07;;;9.98;;
47113;SDS011;32867;51.556;6.832;2024-03-22T10:52:36;17.63;;;11.05;;
47113;SDS011;32867;51.556;6.832;2024-03-22T10:57:45;19.15;;;9.82;;
47113;SDS011;32867;51.556;6.832;2024-03-22T11:02:47;15.20;;;10.02;;
47113;SDS011;32867;51.556;6.832;2024-03-22T11:07:57;16.63;;;11.38;;
47113;SDS011;32867;51.556;6.832;2024-03-22T11:13:05;15.95;;;9.60;;
47113;SDS011;32867;51.556;6.832;2024-03-22T11:18:07;16.55;;;11.05;;
47113;SDS011;32867;51.556;6.832;2024-03-22T11:23:08;17.02;;;11.85;;
47113;SDS011;32867;51.556;6.832;2024-03-22T11:28:09;17.75;;;11.43;;
47113;SDS011;32867;51.556;6.832;2024-03-22T11:33:10;15.15;;;11.07;;
47113;SDS011;32867;51.556;6.832;2024-03-22T11:38:10;15.43;;;11.88;;
47113;SDS011;32867;51.556;6.832;2024-03-22T11:43:11;19.23;;;11.50;;
47113;SDS011;32867;51.556;6.832;2024-03-22T11:48:14;16.45;;;11.63;;
47113;SDS011;32867;51.556;6.832;2024-03-22T11:53:16;16.30;;;11.82;;
47113;SDS011;32867;51.556;6.832;2024-03-22T11:58:18;16.55;;;11.60;;
47113;SDS011;32867;51.556;6.832;2024-03-22T12:03:19;13.90;;;11.25;;
47113;SDS011;32867;51.556;6.832;2024-03-22T12:08:19;15.95;;;10.75;;
47113;SDS011;32867;51.556;6.832;2024-03-22T12:13:20;16.10;;;11.20;;
47113;SDS011;32867;51.556;6.832;2024-03-22T12:18:21;14.05;;;10.40;;
47113;SDS011;32867;51.556;6.832;2024-03-22T12:23:21;16.67;;;10.73;;
47113;SDS011;32867;51.556;6.832;2024-03-22T12:28:22;14.38;;;10.45;;
47113;SDS011;32867;51.556;6.832;2024-03-22T12:33:23;14.25;;;9.75;;
47113;SDS011;32867;51.556;6.832;2024-03-22T12:38:23;14.98;;;11.10;;
47113;SDS011;32867;51.556;6.832;2024-03-22T12:43:24;13.68;;;10.90;;
47113;SDS011;32867;51.556;6.832;2024-03-22T12:48:25;12.68;;;10.27;;
47113;SDS011;32867;51.556;6.832;2024-03-22T12:53:26;15.85;;;10.10;;
47113;SDS011;32867;51.556;6.832;2024-03-22T12:58:27;12.80;;;9.68;;
47113;SDS011;32867;51.556;6.832;2024-03-22T13:03:29;12.32;;;9.82;;
47113;SDS011;32867;51.556;6.832;2024-03-22T13:08:30;13.05;;;9.70;;
47113;SDS011;32867;51.556;6.832;2024-03-22T13:13:31;14.95;;;10.55;;
47113;SDS011;32867;51.556;6.832;2024-03-22T13:18:32;14.13;;;10.15;;
47113;SDS011;32867;51.556;6.832;2024-03-22T13:23:33;14.48;;;10.77;;
47113;SDS011;32867;51.556;6.832;2024-03-22T13:28:34;12.07;;;9.93;;
47113;SDS011;32867;51.556;6.832;2024-03-22T13:33:34;17.77;;;10.52;;
47113;SDS011;32867;51.556;6.832;2024-03-22T13:38:35;12.65;;;10.13;;
47113;SDS011;32867;51.556;6.832;2024-03-22T13:43:35;15.18;;;10.05;;
47113;SDS011;32867;51.556;6.832;2024-03-22T13:48:37;15.82;;;11.10;;
47113;SDS011;32867;51.556;6.832;2024-03-22T13:53:39;15.95;;;12.27;;
47113;SDS011;32867;51.556;6.832;2024-03-22T13:58:39;16.92;;;12.25;;
47113;SDS011;32867;51.556;6.832;2024-03-22T14:03:40;19.10;;;12.77;;
47113;SDS011;32867;51.556;6.832;2024-03-22T14:08:41;18.70;;;13.18;;
47113;SDS011;32867;51.556;6.832;2024-03-22T14:13:42;18.13;;;12.68;;
47113;SDS011;32867;51.556;6.832;2024-03-22T14:18:43;15.13;;;12.32;;
47113;SDS011;32867;51.556;6.832;2024-03-22T14:23:43;17.20;;;14.18;;
47113;SDS011;32867;51.556;6.832;2024-03-22T14:28:44;20.67;;;14.52;;
47113;SDS011;32867;51.556;6.832;2024-03-22T14:33:47;21.13;;;15.57;;
47113;SDS011;32867;51.556;6.832;2024-03-22T14:38:48;23.58;;;17.77;;
47113;SDS011;32867;51.556;6.832;2024-03-22T14:43:48;23.23;;;17.15;;
47113;SDS011;32867;51.556;6.832;2024-03-22T14:48:49;22.75;;;16.77;;
47113;SDS011;32867;51.556;6.832;2024-03-22T14:53:50;23.02;;;18.00;;
47113;SDS011;32867;51.556;6.832;2024-03-22T14:58:50;26.60;;;19.30;;
47113;SDS011;32867;51.556;6.832;2024-03-22T15:03:51;25.02;;;17.73;;
47113;SDS011;32867;51.556;6.832;2024-03-22T15:08:52;27.27;;;21.00;;
47113;SDS011;32867;51.556;6.832;2024-03-22T15:13:52;25.10;;;20.00;;
47113;SDS011;32867;51.556;6.832;2024-03-22T15:18:53;25.92;;;19.85;;
47113;SDS011;32867;51.556;6.832;2024-03-22T15:23:53;27.60;;;20.27;;
47113;SDS011;32867;51.556;6.832;2024-03-22T15:28:54;27.25;;;20.65;;
47113;SDS011;32867;51.556;6.832;2024-03-22T15:33:54;27.48;;;20.70;;
47113;SDS011;32867;51.556;6.832;2024-03-22T15:38:55;29.15;;;21.08;;
47113;SDS011;32867;51.556;6.832;2024-03-22T15:43:56;26.38;;;20.65;;
47113;SDS011;32867;51.556;6.832;2024-03-22T15:48:56;28.02;;;20.48;;
47113;SDS011;32867;51.556;6.832;2024-03-22T15:53:57;28.42;;;20.77;;
47113;SDS011;32867;51.556;6.832;2024-03-22T15:58:57;30.38;;;21.83;;
47113;SDS011;32867;51.556;6.832;2024-03-22T16:03:58;29.35;;;21.02;;
47113;SDS011;32867;51.556;6.832;2024-03-22T16:08:59;26.40;;;19.15;;
47113;SDS011;32867;51.556;6.832;2024-03-22T16:14:00;25.50;;;19.60;;
47113;SDS011;32867;51.556;6.832;2024-03-22T16:19:00;25.42;;;18.42;;
47113;SDS011;32867;51.556;6.832;2024-03-22T16:24:01;25.45;;;17.98;;
47113;SDS011;32867;51.556;6.832;2024-03-22T16:29:03;27.23;;;19.52;;
47113;SDS011;32867;51.556;6.832;2024-03-22T16:34:04;22.98;;;17.10;;
47113;SDS011;32867;51.556;6.832;2024-03-22T16:39:05;22.27;;;17.02;;
47113;SDS011;32867;51.556;6.832;2024-03-22T16:44:06;21.25;;;16.05;;
47113;SDS011;32867;51.556;6.832;2024-03-22T16:49:07;22.23;;;16.15;;
47113;SDS011;32867;51.556;6.832;2024-03-22T16:54:08;24.35;;;17.58;;
47113;SDS011;32867;51.556;6.832;2024-03-22T16:59:09;23.30;;;15.98;;
47113;SDS011;32867;51.556;6.832;2024-03-22T17:04:10;23.30;;;16.90;;
47113;SDS011;32867;51.556;6.832;2024-03-22T17:09:11;19.75;;;13.43;;
47113;SDS011;32867;51.556;6.832;2024-03-22T17:14:11;11.10;;;7.72;;
47113;SDS011;32867;51.556;6.832;2024-03-22T17:19:12;10.63;;;7.55;;
47113;SDS011;32867;51.556;6.832;2024-03-22T17:24:16;7.18;;;4.85;;
47113;SDS011;32867;51.556;6.832;2024-03-22T17:29:17;7.25;;;5.32;;
47113;SDS011;32867;51.556;6.832;2024-03-22T17:34:18;8.18;;;5.57;;
47113;SDS011;32867;51.556;6.832;2024-03-22T17:39:18;7.78;;;6.15;;
47113;SDS011;32867;51.556;6.832;2024-03-22T17:44:19;11.55;;;7.90;;
47113;SDS011;32867;51.556;6.832;2024-03-22T17:49:20;10.15;;;7.40;;
47113;SDS011;32867;51.556;6.832;2024-03-22T17:54:20;10.32;;;7.13;;
47113;SDS011;32867;51.556;6.832;2024-03-22T17:59:22;10.80;;;6.65;;
47113;SDS011;32867;51.556;6.832;2024-03-22T18:04:23;9.23;;;5.68;;
47113;SDS011;32867;51.556;6.832;2024-03-22T18:09:24;11.88;;;6.45;;
47113;SDS011;32867;51.556;6.832;2024-03-22T18:14:25;17.27;;;6.35;;
47113;SDS011;32867;51.556;6.832;2024-03-22T18:19:26;11.45;;;6.10;;
47113;SDS011;32867;51.556;6.832;2024-03-22T18:24:27;10.98;;;7.75;;
47113;SDS011;32867;51.556;6.832;2024-03-22T18:29:27;10.32;;;6.22;;
47113;SDS011;32867;51.556;6.832;2024-03-22T18:34:28;11.73;;;6.78;;
47113;SDS011;32867;51.556;6.832;2024-03-22T18:39:29;12.38;;;7.32;;
47113;SDS011;32867;51.556;6.832;2024-03-22T18:44:29;10.57;;;5.85;;
47113;SDS011;32867;51.556;6.832;2024-03-22T18:49:30;10.90;;;6.90;;
47113;SDS011;32867;51.556;6.832;2024-03-22T18:54:34;11.82;;;7.32;;
47113;SDS011;32867;51.556;6.832;2024-03-22T18:59:34;12.38;;;7.97;;
47113;SDS011;32867;51.556;6.832;2024-03-22T19:04:35;12.70;;;8.68;;
47113;SDS011;32867;51.556;6.832;2024-03-22T19:09:36;14.27;;;8.32;;
47113;SDS011;32867;51.556;6.832;2024-03-22T19:14:36;12.73;;;8.57;;
47113;SDS011;32867;51.556;6.832;2024-03-22T19:19:37;14.23;;;9.88;;
47113;SDS011;32867;51.556;6.832;2024-03-22T19:24:38;12.13;;;8.85;;
47113;SDS011;32867;51.556;6.832;2024-03-22T19:29:39;15.90;;;9.00;;
47113;SDS011;32867;51.556;6.832;2024-03-22T19:34:41;12.35;;;9.10;;
47113;SDS011;32867;51.556;6.832;2024-03-22T19:39:42;12.93;;;8.82;;
47113;SDS011;32867;51.556;6.832;2024-03-22T19:44:43;15.05;;;10.88;;
47113;SDS011;32867;51.556;6.832;2024-03-22T19:49:44;16.92;;;11.85;;
47113;SDS011;32867;51.556;6.832;2024-03-22T19:54:44;18.70;;;12.23;;
47113;SDS011;32867;51.556;6.832;2024-03-22T19:59:45;20.10;;;12.90;;
47113;SDS011;32867;51.556;6.832;2024-03-22T20:04:46;18.42;;;12.27;;
47113;SDS011;32867;51.556;6.832;2024-03-22T20:09:46;17.63;;;12.77;;
47113;SDS011;32867;51.556;6.832;2024-03-22T20:14:47;19.27;;;12.75;;
47113;SDS011;32867;51.556;6.832;2024-03-22T20:19:48;20.10;;;12.07;;
47113;SDS011;32867;51.556;6.832;2024-03-22T20:24:48;21.15;;;13.02;;
47113;SDS011;32867;51.556;6.832;2024-03-22T20:29:49;21.55;;;12.52;;
47113;SDS011;32867;51.556;6.832;2024-03-22T20:34:50;23.05;;;13.10;;
